Time;durP1;ratioP1;P1;durP2;ratioP2;P2;SDS_P1;SDS_P2;PMS_P1;PMS_P2;Temp;Humidity;BMP_temperature;BMP_pressure;BME280_temperature;BME280_humidity;BME280_pressure;Samples;Min_cycle;Max_cycle;Signal;HPM_P1;HPM_P2
2022/01/14 00:01:17;;;;;;;4.93;2.03;;;-4.90;85.70;;;;;;5063164;28;20185;-73
2022/01/14 00:03:43;;;;;;;3.57;1.97;;;-4.90;85.80;;;;;;5062286;28;20248;-73
2022/01/14 00:06:09;;;;;;;2.03;1.70;;;-4.80;85.70;;;;;;5060591;28;20713;-73
2022/01/14 00:08:35;;;;;;;3.53;2.97;;;-4.80;85.60;;;;;;5062011;28;20220;-73
2022/01/14 00:11:03;;;;;;;3.40;2.07;;;-4.80;85.70;;;;;;5062767;28;20195;-73
2022/01/14 00:16:13;;;;;;;3.00;1.80;;;-4.80;85.50;;;;;;5056460;28;20221;-72
2022/01/14 00:18:39;;;;;;;2.20;2.10;;;-4.80;85.50;;;;;;5063742;28;20186;-72
2022/01/14 00:21:05;;;;;;;2.37;2.20;;;-4.70;85.40;;;;;;5064095;28;20213;-74
2022/01/14 00:23:36;;;;;;;3.37;3.17;;;-4.70;85.30;;;;;;5062594;28;20297;-73
2022/01/14 00:31:44;;;;;;;1.03;1.03;;;-4.60;84.70;;;;;;5055098;28;20189;-72
2022/01/14 00:34:14;;;;;;;4.33;1.83;;;-4.60;84.90;;;;;;5063909;28;20259;-73
2022/01/14 00:36:40;;;;;;;2.53;2.07;;;-4.60;84.90;;;;;;5062489;28;20193;-72
2022/01/14 00:39:08;;;;;;;3.40;2.53;;;-4.60;84.70;;;;;;5061837;28;20286;-73
2022/01/14 00:41:37;;;;;;;0.93;0.90;;;-4.60;84.70;;;;;;5061023;28;20189;-72
2022/01/14 00:44:10;;;;;;;1.53;1.20;;;-4.50;84.70;;;;;;5060188;28;20220;-72
2022/01/14 00:46:37;;;;;;;2.03;2.03;;;-4.50;84.60;;;;;;5060199;28;20188;-72
2022/01/14 00:49:03;;;;;;;4.30;2.73;;;-4.50;84.40;;;;;;5059949;28;20218;-74
2022/01/14 00:51:29;;;;;;;6.13;2.70;;;-4.50;84.40;;;;;;5062301;28;20182;-74
2022/01/14 00:53:55;;;;;;;6.40;2.20;;;-4.50;84.40;;;;;;5062497;28;20580;-73
2022/01/14 01:01:34;;;;;;;1.90;1.47;;;-4.40;84.30;;;;;;5061020;28;20243;-74
2022/01/14 01:04:00;;;;;;;5.40;2.17;;;-4.40;84.00;;;;;;5056154;28;20188;-74
2022/01/14 01:06:26;;;;;;;2.17;1.93;;;-4.40;84.00;;;;;;5062015;28;20997;-73
2022/01/14 01:08:55;;;;;;;5.50;3.63;;;-4.40;84.00;;;;;;5059283;28;20216;-73
2022/01/14 01:11:25;;;;;;;3.87;2.60;;;-4.40;84.00;;;;;;5061211;28;20186;-73
2022/01/14 01:14:01;;;;;;;2.73;2.53;;;-4.40;83.80;;;;;;5059485;28;20181;-72
2022/01/14 01:16:27;;;;;;;6.03;2.63;;;-4.40;83.80;;;;;;5062328;28;20189;-74
2022/01/14 01:18:52;;;;;;;4.77;2.13;;;-4.40;83.80;;;;;;5063129;28;20231;-73
2022/01/14 01:21:18;;;;;;;4.17;2.53;;;-4.40;84.00;;;;;;5056443;28;20616;-73
2022/01/14 01:23:44;;;;;;;5.23;2.23;;;-4.40;83.80;;;;;;5056716;28;20178;-73
2022/01/14 01:26:19;;;;;;;4.30;2.23;;;-4.40;83.60;;;;;;5057527;28;20247;-73
2022/01/14 01:31:35;;;;;;;3.87;2.73;;;-4.30;83.50;;;;;;5058218;28;20273;-73
2022/01/14 01:34:18;;;;;;;2.20;2.10;;;-4.30;83.40;;;;;;5059244;28;20593;-73
2022/01/14 01:36:47;;;;;;;1.70;1.67;;;-4.20;83.30;;;;;;5059659;28;20223;-72
2022/01/14 01:39:18;;;;;;;2.70;2.30;;;-4.20;83.10;;;;;;5061051;28;20193;-71
2022/01/14 01:41:46;;;;;;;2.77;1.93;;;-4.10;82.80;;;;;;5056050;28;20195;-72
2022/01/14 01:44:14;;;;;;;4.00;2.63;;;-4.10;82.70;;;;;;5060992;28;20554;-72
2022/01/14 01:46:43;;;;;;;4.03;2.27;;;-4.10;82.50;;;;;;5057564;28;20304;-72
2022/01/14 01:49:10;;;;;;;2.07;1.77;;;-4.10;82.50;;;;;;5062779;28;20210;-71
2022/01/14 01:51:36;;;;;;;7.00;2.97;;;-4.10;82.50;;;;;;5058706;28;20183;-72
2022/01/14 01:54:03;;;;;;;2.47;2.10;;;-4.10;82.50;;;;;;5063895;28;20186;-72
2022/01/14 01:56:29;;;;;;;2.93;1.57;;;-4.10;82.40;;;;;;5060466;28;20181;-72
2022/01/14 01:58:56;;;;;;;3.73;1.90;;;-4.10;82.40;;;;;;5053940;28;20179;-73
2022/01/14 02:01:23;;;;;;;3.60;1.30;;;-4.10;82.30;;;;;;5061307;28;20253;-73
2022/01/14 02:03:50;;;;;;;3.80;2.27;;;-4.10;82.20;;;;;;5054482;28;20820;-72
2022/01/14 02:06:19;;;;;;;4.43;2.37;;;-4.00;82.10;;;;;;5061520;28;20177;-72
2022/01/14 02:08:44;;;;;;;0.90;0.90;;;-4.10;82.00;;;;;;5061004;28;20710;-72
2022/01/14 02:11:10;;;;;;;2.97;2.73;;;-4.10;82.20;;;;;;5058511;28;20207;-72
2022/01/14 02:13:36;;;;;;;2.87;2.27;;;-4.10;82.10;;;;;;5060420;28;20199;-72
2022/01/14 02:24:32;;;;;;;9.63;1.97;;;-4.10;82.10;;;;;;5064777;28;20307;-73
2022/01/14 02:26:55;;;;;;;4.93;1.20;;;-4.10;82.10;;;;;;5061402;28;20197;-72
2022/01/14 02:29:22;;;;;;;3.47;2.00;;;-4.10;82.20;;;;;;5063826;28;20218;-72
2022/01/14 02:31:48;;;;;;;3.70;1.13;;;-4.10;82.10;;;;;;5060244;28;20638;-72
2022/01/14 02:34:15;;;;;;;2.77;2.50;;;-4.10;82.10;;;;;;5062015;28;20256;-72
2022/01/14 02:36:43;;;;;;;2.73;1.97;;;-4.00;82.00;;;;;;5063863;28;20190;-72
2022/01/14 02:39:14;;;;;;;2.17;2.07;;;-4.00;82.00;;;;;;5062711;28;20194;-72
2022/01/14 02:41:43;;;;;;;3.00;1.50;;;-4.00;81.90;;;;;;5062834;28;20298;-72
2022/01/14 02:44:18;;;;;;;2.50;2.00;;;-4.10;81.80;;;;;;5060973;28;20191;-73
2022/01/14 02:46:52;;;;;;;1.77;1.50;;;-4.00;81.80;;;;;;5063100;28;20201;-73
2022/01/14 02:49:18;;;;;;;2.00;1.57;;;-4.00;81.80;;;;;;5063174;28;20222;-73
2022/01/14 02:51:44;;;;;;;2.77;1.83;;;-4.00;81.70;;;;;;5062807;28;20206;-73
2022/01/14 02:54:16;;;;;;;7.97;2.03;;;-4.10;81.80;;;;;;5062896;28;20818;-73
2022/01/14 02:56:44;;;;;;;3.13;2.83;;;-4.10;81.70;;;;;;5060400;28;20192;-73
2022/01/14 02:59:10;;;;;;;2.23;2.03;;;-4.10;81.80;;;;;;5060937;28;20239;-74
2022/01/14 03:01:37;;;;;;;2.03;1.90;;;-4.10;81.90;;;;;;5060278;28;20182;-72
2022/01/14 03:04:04;;;;;;;1.80;1.60;;;-4.10;81.80;;;;;;5062667;28;20667;-71
2022/01/14 03:06:30;;;;;;;3.60;2.53;;;-4.10;81.90;;;;;;5060541;28;20189;-72
2022/01/14 03:09:00;;;;;;;2.00;1.90;;;-4.10;81.80;;;;;;5064309;28;20294;-72
2022/01/14 03:11:40;;;;;;;3.13;1.90;;;-4.10;81.80;;;;;;5058169;28;20584;-71
2022/01/14 03:14:08;;;;;;;2.73;0.90;;;-4.10;81.90;;;;;;5062252;28;20179;-72
2022/01/14 03:16:39;;;;;;;4.40;2.10;;;-4.10;81.70;;;;;;5061513;28;20182;-73
2022/01/14 03:19:09;;;;;;;1.83;1.83;;;-4.10;81.60;;;;;;5064803;28;20243;-73
2022/01/14 03:21:41;;;;;;;2.00;1.93;;;-4.10;81.70;;;;;;5063449;28;20194;-73
2022/01/14 03:24:19;;;;;;;2.20;2.00;;;-4.10;81.80;;;;;;5065318;28;20182;-74
2022/01/14 03:26:47;;;;;;;2.37;2.17;;;-4.10;81.80;;;;;;5063541;28;20272;-73
2022/01/14 03:29:17;;;;;;;4.53;2.53;;;-4.10;81.70;;;;;;5059853;28;20214;-72
2022/01/14 03:31:44;;;;;;;3.27;1.43;;;-4.10;81.70;;;;;;5060572;28;20183;-73
2022/01/14 03:34:10;;;;;;;2.67;2.13;;;-4.10;81.70;;;;;;5062672;28;20736;-75
2022/01/14 03:36:36;;;;;;;2.17;1.93;;;-4.10;81.60;;;;;;5063130;28;20182;-73
2022/01/14 03:39:02;;;;;;;2.13;1.63;;;-4.10;81.60;;;;;;5061703;28;20278;-73
2022/01/14 03:41:29;;;;;;;3.33;2.60;;;-4.00;81.70;;;;;;5059686;28;20187;-74
2022/01/14 03:43:54;;;;;;;3.57;2.87;;;-4.00;81.60;;;;;;5063261;28;20186;-73
2022/01/14 03:46:20;;;;;;;2.43;1.93;;;-4.00;81.50;;;;;;5064554;28;20292;-73
2022/01/14 03:48:46;;;;;;;2.33;1.67;;;-4.00;81.50;;;;;;5062307;28;20590;-73
2022/01/14 03:51:12;;;;;;;6.13;1.97;;;-4.10;81.50;;;;;;5058719;28;20203;-73
2022/01/14 03:53:38;;;;;;;1.47;1.37;;;-4.00;81.50;;;;;;5063068;28;20678;-72
2022/01/14 03:56:05;;;;;;;2.83;2.63;;;-4.00;81.30;;;;;;5061650;28;20180;-72
2022/01/14 03:58:30;;;;;;;3.40;2.57;;;-4.00;81.30;;;;;;5058245;28;20458;-72
2022/01/14 04:00:56;;;;;;;4.30;1.97;;;-4.10;81.50;;;;;;5060377;28;20185;-73
2022/01/14 04:03:22;;;;;;;2.77;2.47;;;-4.10;81.50;;;;;;5060880;28;20190;-74
2022/01/14 04:05:48;;;;;;;1.67;1.57;;;-4.10;81.50;;;;;;5060391;28;20178;-73
2022/01/14 04:08:13;;;;;;;3.80;2.27;;;-4.10;81.20;;;;;;5074101;28;20215;-73
2022/01/14 04:10:39;;;;;;;2.00;1.57;;;-4.10;81.10;;;;;;5060951;28;20255;-73
2022/01/14 04:13:13;;;;;;;4.43;2.50;;;-4.10;81.10;;;;;;5061917;28;20197;-73
2022/01/14 04:15:45;;;;;;;3.20;1.47;;;-4.00;80.90;;;;;;5059209;28;20214;-74
2022/01/14 04:18:19;;;;;;;2.40;2.00;;;-4.10;80.80;;;;;;5062144;28;20236;-73
2022/01/14 04:20:48;;;;;;;3.03;1.43;;;-4.10;80.70;;;;;;5060942;28;20178;-74
2022/01/14 04:23:15;;;;;;;2.17;1.97;;;-4.10;80.60;;;;;;5064971;28;20310;-73
2022/01/14 04:25:42;;;;;;;2.47;2.27;;;-4.00;80.60;;;;;;5064130;28;20178;-73
2022/01/14 04:28:09;;;;;;;1.70;1.53;;;-4.00;80.70;;;;;;5062423;28;20282;-73
2022/01/14 04:30:35;;;;;;;3.50;2.00;;;-4.00;80.40;;;;;;5062353;28;20428;-74
2022/01/14 04:33:02;;;;;;;1.73;1.63;;;-4.00;80.30;;;;;;5059135;28;20579;-73
2022/01/14 04:35:29;;;;;;;3.97;1.90;;;-3.90;80.20;;;;;;5062963;28;20210;-73
2022/01/14 04:37:55;;;;;;;3.83;2.33;;;-3.90;80.10;;;;;;5062342;28;20220;-73
2022/01/14 04:40:21;;;;;;;1.70;1.50;;;-3.80;80.00;;;;;;5060328;28;20186;-73
2022/01/14 04:42:47;;;;;;;1.27;1.27;;;-3.80;79.90;;;;;;5062624;28;20234;-73
2022/01/14 04:45:26;;;;;;;1.50;1.40;;;-3.80;79.90;;;;;;5058240;28;20190;-73
2022/01/14 04:47:52;;;;;;;0.73;0.73;;;-3.80;80.00;;;;;;5075422;28;20748;-73
2022/01/14 04:50:20;;;;;;;2.57;1.97;;;-3.80;80.00;;;;;;5061522;28;20269;-74
2022/01/14 04:52:47;;;;;;;2.43;1.80;;;-3.80;79.90;;;;;;5060805;28;20179;-73
2022/01/14 04:55:15;;;;;;;2.57;2.10;;;-3.90;79.90;;;;;;5059566;28;20196;-74
2022/01/14 04:57:41;;;;;;;1.67;0.83;;;-3.90;80.00;;;;;;5062110;28;20194;-74
2022/01/14 05:00:10;;;;;;;3.17;2.10;;;-3.90;80.10;;;;;;5059229;28;20308;-74
2022/01/14 05:02:37;;;;;;;6.40;2.07;;;-3.90;80.10;;;;;;5060928;28;20185;-74
2022/01/14 05:05:05;;;;;;;2.10;2.00;;;-3.90;80.30;;;;;;5060674;28;20178;-75
2022/01/14 05:07:31;;;;;;;4.00;2.20;;;-3.90;80.30;;;;;;5057081;28;20190;-74
2022/01/14 05:12:28;;;;;;;4.20;1.43;;;-3.90;80.40;;;;;;5062375;28;20183;-74
2022/01/14 05:14:54;;;;;;;6.83;3.93;;;-3.90;80.40;;;;;;5058852;28;20947;-73
2022/01/14 05:17:20;;;;;;;7.20;1.90;;;-3.90;80.50;;;;;;5062980;28;20189;-73
2022/01/14 05:19:47;;;;;;;2.50;2.33;;;-3.90;80.60;;;;;;5059816;28;20193;-74
2022/01/14 05:22:12;;;;;;;2.90;2.10;;;-3.80;80.70;;;;;;5055046;28;20186;-74
2022/01/14 05:24:38;;;;;;;9.37;2.17;;;-3.80;80.60;;;;;;5057373;28;20182;-73
2022/01/14 05:27:04;;;;;;;8.63;3.13;;;-3.80;80.70;;;;;;5059194;28;20793;-74
2022/01/14 05:29:30;;;;;;;2.73;2.53;;;-3.80;80.60;;;;;;5057771;28;20582;-73
2022/01/14 05:32:02;;;;;;;5.33;1.97;;;-3.80;80.50;;;;;;5059487;28;20211;-73
2022/01/14 05:34:29;;;;;;;2.33;2.13;;;-3.80;80.50;;;;;;5057283;28;20242;-73
2022/01/14 05:36:55;;;;;;;2.07;1.97;;;-3.80;80.50;;;;;;5062834;28;20179;-74
2022/01/14 05:39:20;;;;;;;8.97;3.10;;;-3.80;80.40;;;;;;5060989;28;20181;-72
2022/01/14 05:41:47;;;;;;;5.23;1.83;;;-3.80;80.50;;;;;;5058573;28;20205;-73
2022/01/14 05:44:12;;;;;;;5.53;2.17;;;-3.90;80.50;;;;;;5059633;28;20236;-73
2022/01/14 05:46:38;;;;;;;2.03;1.57;;;-4.00;80.50;;;;;;5060480;28;20190;-74
2022/01/14 05:49:04;;;;;;;6.33;2.27;;;-4.00;80.60;;;;;;5060783;28;20683;-75
2022/01/14 05:51:30;;;;;;;3.40;3.20;;;-4.00;80.80;;;;;;5061583;28;20272;-74
2022/01/14 05:53:56;;;;;;;1.97;1.70;;;-4.00;80.80;;;;;;5062402;28;20183;-77
2022/01/14 05:56:22;;;;;;;2.60;2.27;;;-4.10;80.90;;;;;;5063225;28;20250;-77
2022/01/14 05:58:48;;;;;;;3.47;2.37;;;-4.10;81.00;;;;;;5060606;28;20190;-77
2022/01/14 06:01:13;;;;;;;4.00;3.10;;;-4.10;81.20;;;;;;5059559;28;20182;-77
2022/01/14 06:03:39;;;;;;;2.30;2.20;;;-4.00;81.30;;;;;;5058632;28;20190;-76
2022/01/14 06:06:05;;;;;;;4.23;2.70;;;-4.00;81.30;;;;;;5060913;28;20187;-79
2022/01/14 06:08:31;;;;;;;3.20;2.93;;;-3.90;81.30;;;;;;5060446;28;20758;-76
2022/01/14 06:10:56;;;;;;;4.20;3.13;;;-3.80;81.20;;;;;;5056876;28;20181;-76
2022/01/14 06:13:22;;;;;;;3.80;2.87;;;-3.70;81.10;;;;;;5060899;28;20178;-75
2022/01/14 06:15:48;;;;;;;2.10;1.97;;;-3.70;81.00;;;;;;5057335;28;20208;-75
2022/01/14 06:18:13;;;;;;;2.10;2.00;;;-3.50;81.00;;;;;;5058256;28;20205;-75
2022/01/14 06:20:39;;;;;;;2.20;1.97;;;-3.50;80.70;;;;;;5053404;28;20188;-74
2022/01/14 06:23:05;;;;;;;4.00;2.17;;;-3.40;80.70;;;;;;5057976;28;20183;-76
2022/01/14 06:25:31;;;;;;;3.10;1.90;;;-3.30;80.60;;;;;;5060546;28;20179;-75
2022/01/14 06:27:57;;;;;;;4.23;2.43;;;-3.20;80.30;;;;;;5059664;28;20270;-74
2022/01/14 06:30:23;;;;;;;2.13;1.83;;;-3.20;80.10;;;;;;5037975;28;20250;-75
2022/01/14 06:32:56;;;;;;;2.73;2.17;;;-3.10;80.30;;;;;;5018836;28;20192;-75
2022/01/14 06:35:23;;;;;;;5.30;2.17;;;-3.00;80.10;;;;;;5013311;28;20227;-74
2022/01/14 06:37:49;;;;;;;2.70;2.27;;;-2.90;80.00;;;;;;5016806;28;20219;-73
2022/01/14 06:40:15;;;;;;;2.27;2.07;;;-2.90;80.00;;;;;;5020651;28;20184;-75
2022/01/14 06:42:42;;;;;;;3.37;2.70;;;-2.80;79.90;;;;;;5016812;28;20181;-74
2022/01/14 06:45:09;;;;;;;10.43;1.93;;;-2.70;80.00;;;;;;5016477;28;20188;-76
2022/01/14 06:47:34;;;;;;;2.47;2.13;;;-2.70;80.00;;;;;;5018622;28;20189;-74
2022/01/14 06:50:00;;;;;;;3.00;2.77;;;-2.60;79.90;;;;;;5021139;28;20350;-75
2022/01/14 06:52:26;;;;;;;3.57;2.00;;;-2.50;80.00;;;;;;5020719;28;20184;-73
2022/01/14 06:54:52;;;;;;;11.63;3.30;;;-2.50;80.20;;;;;;5020028;28;20185;-74
2022/01/14 06:57:19;;;;;;;2.90;2.67;;;-2.40;80.70;;;;;;5018797;28;20188;-75
2022/01/14 06:59:46;;;;;;;2.10;2.00;;;-2.30;81.00;;;;;;5021873;28;20295;-75
2022/01/14 07:02:12;;;;;;;3.60;3.03;;;-2.20;81.50;;;;;;5022176;28;21839;-76
2022/01/14 07:04:39;;;;;;;2.87;1.70;;;-2.10;81.90;;;;;;5021962;28;20216;-74
2022/01/14 07:07:05;;;;;;;8.37;2.63;;;-2.00;81.90;;;;;;5021538;28;20303;-74
2022/01/14 07:09:31;;;;;;;5.63;2.87;;;-1.80;81.80;;;;;;5023009;28;21059;-74
2022/01/14 07:12:00;;;;;;;2.90;2.80;;;-1.70;81.80;;;;;;5024493;28;20173;-74
2022/01/14 07:14:26;;;;;;;13.90;3.67;;;-1.60;81.50;;;;;;5024336;28;20267;-74
2022/01/14 07:16:52;;;;;;;6.90;2.63;;;-1.40;81.00;;;;;;5024383;28;20180;-73
2022/01/14 07:19:21;;;;;;;2.23;2.07;;;-1.30;80.40;;;;;;5024185;28;20184;-74
2022/01/14 07:21:47;;;;;;;2.43;1.87;;;-1.30;80.30;;;;;;5022508;28;20227;-74
2022/01/14 07:24:13;;;;;;;7.23;3.40;;;-1.30;81.10;;;;;;5022217;28;20188;-75
2022/01/14 07:26:40;;;;;;;3.07;2.80;;;-1.20;81.40;;;;;;5023851;28;20259;-74
2022/01/14 07:29:06;;;;;;;3.03;2.53;;;-1.10;81.30;;;;;;5023782;28;20219;-75
2022/01/14 07:31:32;;;;;;;2.17;1.80;;;-1.00;81.60;;;;;;5023436;28;20184;-74
2022/01/14 07:33:58;;;;;;;3.00;2.77;;;-0.90;81.60;;;;;;5023487;28;20184;-73
2022/01/14 07:36:23;;;;;;;7.93;3.90;;;-0.80;81.60;;;;;;5021376;28;20267;-74
2022/01/14 07:38:49;;;;;;;2.60;2.40;;;-0.60;81.40;;;;;;5022588;28;20204;-71
2022/01/14 07:41:16;;;;;;;6.10;3.87;;;-0.50;81.20;;;;;;5024106;28;20185;-73
2022/01/14 07:43:46;;;;;;;3.60;3.03;;;-0.40;80.80;;;;;;5018784;28;20267;-74
2022/01/14 07:46:12;;;;;;;5.27;3.30;;;-0.40;80.80;;;;;;5019155;28;20247;-73
2022/01/14 07:48:38;;;;;;;5.10;2.57;;;-0.30;80.90;;;;;;5023937;28;20216;-73
2022/01/14 07:51:04;;;;;;;3.90;3.00;;;-0.20;80.70;;;;;;5019561;28;20561;-74
2022/01/14 07:53:30;;;;;;;7.07;2.97;;;-0.10;80.40;;;;;;5010969;28;20553;-73
2022/01/14 07:55:55;;;;;;;5.40;3.00;;;0.00;79.80;;;;;;5014086;28;20196;-73
2022/01/14 07:58:22;;;;;;;3.30;3.10;;;0.00;79.70;;;;;;5018018;28;20270;-73
2022/01/14 08:00:49;;;;;;;4.90;2.43;;;0.10;79.50;;;;;;5022305;28;20200;-74
2022/01/14 08:03:15;;;;;;;5.07;3.37;;;0.10;79.30;;;;;;5022296;28;20729;-74
2022/01/14 08:05:40;;;;;;;5.33;3.53;;;0.10;79.10;;;;;;5016109;28;20198;-74
2022/01/14 08:08:07;;;;;;;4.23;3.70;;;0.20;78.90;;;;;;5019846;28;20184;-75
2022/01/14 08:10:35;;;;;;;5.63;3.50;;;0.20;79.00;;;;;;5020210;28;20273;-75
2022/01/14 08:13:01;;;;;;;7.00;4.23;;;0.20;80.10;;;;;;5023064;28;20219;-75
2022/01/14 08:15:27;;;;;;;6.97;3.93;;;0.20;80.20;;;;;;5021620;28;20180;-75
2022/01/14 08:17:54;;;;;;;9.40;4.37;;;0.30;80.20;;;;;;5021823;28;20188;-73
2022/01/14 08:20:20;;;;;;;6.57;3.93;;;0.30;80.60;;;;;;5019562;28;20196;-74
2022/01/14 08:22:46;;;;;;;8.87;3.57;;;0.40;80.80;;;;;;5018787;28;20188;-74
2022/01/14 08:25:12;;;;;;;8.53;4.07;;;0.40;80.70;;;;;;5019158;28;20197;-74
2022/01/14 08:27:38;;;;;;;4.20;2.90;;;0.50;80.60;;;;;;5022323;28;20191;-74
2022/01/14 08:30:06;;;;;;;7.83;4.17;;;0.60;80.50;;;;;;5021354;28;20220;-74
2022/01/14 08:32:32;;;;;;;6.13;4.20;;;0.70;80.40;;;;;;5021473;28;21098;-73
2022/01/14 08:34:58;;;;;;;5.13;3.20;;;0.70;80.70;;;;;;5018829;28;20181;-73
2022/01/14 08:37:24;;;;;;;6.53;4.20;;;0.90;80.70;;;;;;5019546;28;20184;-73
2022/01/14 08:39:50;;;;;;;7.87;4.47;;;1.00;80.70;;;;;;5020657;28;20291;-74
2022/01/14 08:42:17;;;;;;;10.57;3.63;;;1.10;80.80;;;;;;5021027;28;20180;-73
2022/01/14 08:44:44;;;;;;;4.37;2.73;;;1.20;81.00;;;;;;5017932;28;20275;-74
2022/01/14 08:47:11;;;;;;;4.77;3.77;;;1.40;80.80;;;;;;5019269;28;20580;-74
2022/01/14 08:49:42;;;;;;;4.60;4.17;;;1.50;80.40;;;;;;5018251;28;20255;-74
2022/01/14 08:52:10;;;;;;;7.00;3.97;;;1.70;79.30;;;;;;5019279;28;20180;-74
2022/01/14 08:54:36;;;;;;;7.43;3.60;;;1.80;79.20;;;;;;5018077;28;20739;-74
2022/01/14 08:57:02;;;;;;;3.77;3.13;;;1.80;79.40;;;;;;5019997;28;20262;-75
2022/01/14 08:59:29;;;;;;;2.67;2.50;;;1.90;79.80;;;;;;5020507;28;20234;-73
2022/01/14 09:01:55;;;;;;;2.40;2.07;;;2.10;79.60;;;;;;5018817;28;20212;-74
2022/01/14 09:04:21;;;;;;;1.93;1.47;;;2.00;80.60;;;;;;5019860;28;20184;-75
2022/01/14 09:06:46;;;;;;;3.30;2.07;;;2.00;81.10;;;;;;5021463;28;20188;-74
2022/01/14 09:09:13;;;;;;;2.60;1.53;;;2.00;81.30;;;;;;5017356;28;20224;-75
2022/01/14 09:11:38;;;;;;;2.67;2.47;;;2.10;81.40;;;;;;5016589;28;20299;-75
2022/01/14 09:14:04;;;;;;;2.67;1.43;;;2.10;81.50;;;;;;5016641;28;20890;-74
2022/01/14 09:16:30;;;;;;;2.40;1.83;;;2.20;81.50;;;;;;5018890;28;20657;-74
2022/01/14 09:18:56;;;;;;;2.07;1.80;;;2.30;81.40;;;;;;5018352;28;20192;-73
2022/01/14 09:21:22;;;;;;;2.40;1.77;;;2.20;81.40;;;;;;5018736;28;20191;-73
2022/01/14 09:23:52;;;;;;;1.73;1.63;;;2.10;81.80;;;;;;5012986;28;20180;-73
2022/01/14 09:26:19;;;;;;;2.53;1.43;;;2.00;82.40;;;;;;5019517;28;20654;-73
2022/01/14 09:28:45;;;;;;;1.97;1.87;;;2.00;82.70;;;;;;5017711;28;20211;-73
2022/01/14 09:31:11;;;;;;;3.37;2.07;;;2.20;82.70;;;;;;5018351;28;20199;-74
2022/01/14 09:33:38;;;;;;;2.07;1.63;;;2.30;81.90;;;;;;5017008;28;20650;-74
2022/01/14 09:36:04;;;;;;;1.37;1.27;;;2.40;81.70;;;;;;5016355;28;20571;-74
2022/01/14 09:38:31;;;;;;;2.93;1.97;;;2.50;81.50;;;;;;5017265;28;20184;-74
2022/01/14 09:40:58;;;;;;;1.37;1.37;;;2.50;81.60;;;;;;5019564;28;20207;-74
2022/01/14 09:43:25;;;;;;;2.27;2.07;;;2.50;81.50;;;;;;5016131;28;20233;-75
2022/01/14 09:45:53;;;;;;;3.17;1.60;;;2.40;81.80;;;;;;5018494;28;20180;-75
2022/01/14 09:48:21;;;;;;;1.67;1.57;;;2.30;82.00;;;;;;5016014;28;20203;-75
2022/01/14 09:50:47;;;;;;;2.30;1.40;;;2.40;82.00;;;;;;5016086;28;20180;-72
2022/01/14 09:53:16;;;;;;;1.43;1.33;;;2.40;82.00;;;;;;5016761;28;20218;-75
2022/01/14 09:55:42;;;;;;;1.83;1.73;;;2.40;82.20;;;;;;5015410;28;20195;-76
2022/01/14 09:58:08;;;;;;;1.73;1.63;;;2.60;82.20;;;;;;5015144;28;20197;-76
2022/01/14 10:00:36;;;;;;;2.00;1.90;;;2.80;81.70;;;;;;5016035;28;20274;-76
2022/01/14 10:03:21;;;;;;;1.70;1.60;;;3.00;80.90;;;;;;5018444;28;20196;-75
2022/01/14 10:05:51;;;;;;;23.00;3.20;;;3.00;80.80;;;;;;5018519;28;20198;-75
2022/01/14 10:08:23;;;;;;;3.53;2.10;;;3.10;81.30;;;;;;5018909;28;20246;-75
2022/01/14 10:10:51;;;;;;;1.80;1.70;;;3.40;80.50;;;;;;5018052;28;20188;-74
2022/01/14 10:13:23;;;;;;;7.30;2.53;;;3.40;79.80;;;;;;5016013;28;20187;-75
2022/01/14 10:15:53;;;;;;;2.20;1.73;;;3.40;80.00;;;;;;5015968;28;20184;-75
2022/01/14 10:18:20;;;;;;;17.23;2.80;;;3.40;79.90;;;;;;5016084;28;20670;-75
2022/01/14 10:20:48;;;;;;;5.17;2.33;;;3.50;79.90;;;;;;5017776;28;20256;-74
2022/01/14 10:23:15;;;;;;;2.40;2.27;;;3.60;79.60;;;;;;5015648;28;20180;-74
2022/01/14 10:25:41;;;;;;;2.07;1.93;;;3.90;79.60;;;;;;5017486;28;20599;-75
2022/01/14 10:28:18;;;;;;;3.07;2.27;;;4.30;78.40;;;;;;5018676;28;20208;-74
2022/01/14 10:30:47;;;;;;;4.70;2.53;;;4.60;77.60;;;;;;5018250;28;20192;-75
2022/01/14 10:33:13;;;;;;;1.90;1.80;;;4.80;76.60;;;;;;5018994;28;20184;-75
2022/01/14 10:35:45;;;;;;;2.20;2.00;;;4.80;75.90;;;;;;5018765;28;20953;-75
2022/01/14 10:38:13;;;;;;;6.13;1.90;;;4.70;76.00;;;;;;5018343;28;20242;-75
2022/01/14 10:40:50;;;;;;;5.43;2.57;;;4.90;76.40;;;;;;5016760;28;20181;-75
2022/01/14 10:43:23;;;;;;;1.50;1.47;;;4.90;76.00;;;;;;5018982;28;20629;-75
2022/01/14 10:45:50;;;;;;;2.27;2.17;;;5.00;75.60;;;;;;5022797;28;20250;-75
2022/01/14 10:48:48;;;;;;;2.13;2.03;;;5.00;75.10;;;;;;5018465;28;20540;-75
2022/01/14 10:51:18;;;;;;;1.77;1.67;;;4.70;75.30;;;;;;5002150;28;20300;-76
2022/01/14 10:53:54;;;;;;;3.23;2.10;;;4.40;75.80;;;;;;5005665;28;20780;-73
2022/01/14 10:56:27;;;;;;;1.80;1.70;;;4.30;76.70;;;;;;5007745;28;20237;-75
2022/01/14 10:58:56;;;;;;;6.10;2.33;;;4.40;76.90;;;;;;5008690;28;20734;-76
2022/01/14 11:01:24;;;;;;;2.77;1.63;;;4.80;76.60;;;;;;4999547;28;20204;-76
2022/01/14 11:03:56;;;;;;;2.90;2.47;;;5.40;75.30;;;;;;5005467;28;20294;-75
2022/01/14 11:06:33;;;;;;;17.00;3.33;;;6.00;74.60;;;;;;5002496;28;20193;-75
2022/01/14 11:09:02;;;;;;;2.97;2.03;;;6.80;73.10;;;;;;5006532;28;20227;-75
2022/01/14 11:11:29;;;;;;;2.63;2.30;;;7.30;70.90;;;;;;5010560;28;20192;-75
2022/01/14 11:13:55;;;;;;;2.57;2.03;;;7.70;70.30;;;;;;5011939;28;20189;-75
2022/01/14 11:16:21;;;;;;;3.10;2.13;;;7.80;68.80;;;;;;5005865;28;20189;-75
2022/01/14 11:18:49;;;;;;;6.70;2.17;;;7.80;68.70;;;;;;5002679;28;20414;-76
2022/01/14 11:24:04;;;;;;;1.53;1.43;;;8.20;68.00;;;;;;5008298;28;20203;-75
2022/01/14 11:26:34;;;;;;;2.07;1.97;;;8.20;67.80;;;;;;5004551;28;20339;-74
2022/01/14 11:29:10;;;;;;;2.77;2.57;;;8.30;67.80;;;;;;5019486;28;20274;-78
2022/01/14 11:31:37;;;;;;;4.73;2.33;;;8.20;67.80;;;;;;5019284;28;20647;-78
2022/01/14 11:34:09;;;;;;;2.73;2.20;;;8.60;68.40;;;;;;5021838;28;20259;-78
2022/01/14 11:36:59;;;;;;;2.00;1.80;;;9.00;67.10;;;;;;5021858;28;20825;-77
2022/01/14 11:39:29;;;;;;;2.50;2.03;;;8.90;66.20;;;;;;5024896;28;20196;-77
2022/01/14 11:41:56;;;;;;;2.43;1.83;;;8.80;66.60;;;;;;5021926;28;20231;-77
2022/01/14 11:47:27;;;;;;;2.70;2.50;;;8.60;67.10;;;;;;5010368;28;20228;-77
2022/01/14 11:49:54;;;;;;;3.00;2.80;;;8.90;66.90;;;;;;4999504;28;20260;-76
2022/01/14 11:52:37;;;;;;;2.25;2.15;;;9.20;66.10;;;;;;5001017;28;20201;-77
2022/01/14 11:55:05;;;;;;;3.38;2.85;;;9.30;65.80;;;;;;5002293;28;20182;-77
2022/01/14 11:57:51;;;;;;;4.07;2.97;;;9.50;65.40;;;;;;5003164;28;20277;-78
2022/01/14 12:00:47;;;;;;;2.38;2.17;;;9.40;65.70;;;;;;4977150;28;20548;-77
2022/01/14 12:03:14;;;;;;;2.60;2.47;;;9.50;65.20;;;;;;4967583;28;20189;-77
2022/01/14 12:06:00;;;;;;;2.77;2.27;;;9.30;65.20;;;;;;4969061;28;20185;-76
2022/01/14 12:08:28;;;;;;;2.88;2.33;;;9.20;65.30;;;;;;4958950;28;20578;-76
2022/01/14 12:11:05;;;;;;;3.42;3.15;;;9.20;65.70;;;;;;4955991;28;20583;-76
2022/01/14 12:14:00;;;;;;;2.42;2.22;;;9.30;65.60;;;;;;4971630;28;20278;-76
2022/01/14 12:16:46;;;;;;;2.70;2.50;;;9.00;65.50;;;;;;4971791;28;20186;-77
2022/01/14 12:19:16;;;;;;;2.20;2.10;;;8.90;65.90;;;;;;4960384;28;20263;-77
2022/01/14 12:21:44;;;;;;;2.28;2.05;;;8.90;66.00;;;;;;4967225;28;20217;-76
2022/01/14 12:24:16;;;;;;;2.63;2.28;;;8.90;66.20;;;;;;4988739;28;20197;-78
2022/01/14 12:26:43;;;;;;;2.15;1.85;;;8.90;66.00;;;;;;5005758;28;20209;-76
2022/01/14 12:29:11;;;;;;;2.43;1.93;;;8.90;66.20;;;;;;5011649;28;20709;-78
2022/01/14 12:32:05;;;;;;;2.33;2.23;;;8.90;66.00;;;;;;5013016;28;20196;-75
2022/01/14 12:34:57;;;;;;;3.42;2.03;;;8.90;66.50;;;;;;5003699;28;20193;-77
2022/01/14 12:37:27;;;;;;;2.17;1.67;;;9.10;66.00;;;;;;5005269;28;21605;-75
2022/01/14 12:39:54;;;;;;;2.47;1.75;;;8.80;66.10;;;;;;5017834;28;20188;-77
2022/01/14 12:42:21;;;;;;;1.27;1.23;;;8.70;66.60;;;;;;5006167;28;20303;-76
2022/01/14 12:44:50;;;;;;;2.58;2.13;;;8.60;66.80;;;;;;5020045;28;20223;-76
2022/01/14 12:47:26;;;;;;;2.38;1.80;;;8.60;67.30;;;;;;5017963;28;20184;-76
2022/01/14 12:49:52;;;;;;;1.13;1.13;;;8.60;67.10;;;;;;5018812;28;20217;-77
2022/01/14 12:52:30;;;;;;;2.47;1.60;;;8.20;67.60;;;;;;5012681;28;21248;-77
2022/01/14 12:54:56;;;;;;;2.47;1.73;;;8.20;68.10;;;;;;5038008;28;20188;-77
2022/01/14 12:57:24;;;;;;;1.47;1.47;;;8.20;68.20;;;;;;5021286;28;20192;-77
2022/01/14 12:59:52;;;;;;;1.40;1.30;;;8.30;68.20;;;;;;5022580;28;20180;-76
2022/01/14 13:02:23;;;;;;;2.50;1.20;;;8.40;68.10;;;;;;5025873;28;20188;-77
2022/01/14 13:05:04;;;;;;;1.87;1.67;;;8.30;68.20;;;;;;5017792;28;20193;-77
2022/01/14 13:07:30;;;;;;;2.10;1.80;;;8.20;68.60;;;;;;5013788;28;20261;-77
2022/01/14 13:09:56;;;;;;;1.70;1.60;;;8.30;68.40;;;;;;5017207;28;20240;-75
2022/01/14 13:12:27;;;;;;;2.97;1.57;;;8.30;68.50;;;;;;5020458;28;20658;-77
2022/01/14 13:15:00;;;;;;;1.30;1.20;;;8.40;68.80;;;;;;5020718;28;20181;-75
2022/01/14 13:17:32;;;;;;;2.38;2.15;;;8.60;68.70;;;;;;5018223;28;20251;-75
2022/01/14 13:20:08;;;;;;;1.63;1.53;;;8.70;68.30;;;;;;5018995;28;20207;-76
2022/01/14 13:22:34;;;;;;;1.50;1.40;;;8.70;68.10;;;;;;5017989;28;20283;-76
2022/01/14 13:25:07;;;;;;;1.17;1.10;;;8.70;67.60;;;;;;5021310;28;20180;-76
2022/01/14 13:27:42;;;;;;;1.63;1.50;;;8.70;68.10;;;;;;5020939;28;20192;-76
2022/01/14 13:30:16;;;;;;;1.83;1.73;;;8.90;67.90;;;;;;5022201;28;20223;-76